ADDS METAR Data INFO
IDs: Format: Raw Decoded Include TAF

Data at: 0843 UTC 27 Jun 2017

KODO 270753Z AUTO 13003KT 10SM CLR 21/19 A3013 RMK AO2 SLP160 T02060189
KODO 270653Z AUTO 13006KT 10SM CLR 21/19 A3013 RMK AO2 SLP159 T02110189
KODO 270553Z AUTO 11007KT 10SM CLR 22/18 A3013 RMK AO2 SLP160 T02220183 10272 20222 402780172 50013
KODO 270453Z AUTO 12008KT 10SM CLR 23/18 A3014 RMK AO2 SLP163 T02280183
KODO 270353Z AUTO 10006KT 10SM SCT065 24/19 A3012 RMK AO2 SLP156 T02390189
KODO 270253Z AUTO 12008KT 10SM CLR 24/18 A3009 RMK AO2 SLP148 T02440183 53003
KODO 270153Z AUTO 11008KT 10SM SCT085 26/18 A3008 RMK AO2 SLP145 T02560183
KODO 270053Z AUTO 11009KT 10SM BKN065 OVC085 27/19 A3009 RMK AO2 SLP147 T02670189
KODO 262353Z AUTO 10011KT 10SM FEW090 27/19 A3008 RMK AO2 SLP145 T02720189 10278 20261 56014
KODO 262253Z AUTO 09012KT 10SM CLR 27/19 A3010 RMK AO2 SLP151 T02720189
KODO 262153Z AUTO 09011KT 10SM FEW050 BKN070 OVC080 26/19 A3011 RMK AO2 SLP156 T02610194
KODO 262053Z AUTO 12006KT 10SM FEW048 SCT095 OVC110 27/18 A3013 RMK AO2 SLP160 T02670183 58023
KODO 261953Z AUTO 12010KT 10SM FEW041 BKN048 BKN060 27/19 A3015 RMK AO2 SLP164 T02670194
KODO 261853Z AUTO 00000KT 10SM SCT042 BKN055 BKN120 27/17 A3018 RMK AO2 SLP173 T02670172
KODO 261753Z AUTO 23003KT 10SM CLR 26/17 A3020 RMK AO2 SLP180 60005 T02610172 10261 20178 58004
KODO 261653Z AUTO 28005KT 10SM CLR 25/17 A3021 RMK AO2 SLP183 T02500172
KODO 261553Z AUTO 31005KT 10SM CLR 24/17 A3022 RMK AO2 SLP189 T02390172
KODO 261453Z AUTO 36004KT 10SM CLR 22/17 A3021 RMK AO2 SLP185 60005 T02220172 55005
KODO 261353Z AUTO 08011KT 10SM CLR 20/18 A3021 RMK AO2 RAE13 SLP184 P0001 T02000178
KODO 261253Z AUTO 15010KT 10SM -RA OVC100 18/18 A3021 RMK AO2 SLP185 P0004 T01830178
KODO 261153Z AUTO 09011KT 6SM RA BR BKN090 OVC110 18/17 A3023 RMK AO2 SLP192 P0019 60097 70097 T01780167 10256 20172 58006 $
KODO 261128Z AUTO 07012KT 6SM RA BR SCT075 OVC095 18/17 A3025 RMK AO2 P0011 T01780167 $
KODO 261113Z AUTO 06008KT 6SM VCTS RA BR BKN090 OVC110 18/17 A3026 RMK AO2 LTG DSNT SE AND S P0005 T01780167 $
KODO 261053Z AUTO 04013G21KT 6SM RA BR BKN090 OVC110 17/17 A3024 RMK AO2 LTG DSNT E-SW TSB00E15 SLP195 P0013 T01720167
KODO 261049Z AUTO 04016G21KT 7SM RA FEW075 BKN090 OVC110 17/17 A3024 RMK AO2 LTG DSNT E-SW TSB00E15 P0012
KODO 261021Z AUTO 03016G24KT 6SM VCTS RA BR FEW049 SCT070 OVC090 17/17 A3024 RMK AO2 LTG DSNT ALQDS TSB00E15 P0005 T01720172
KODO 261006Z AUTO 02015G22KT 8SM TSRA SCT008 SCT055 OVC085 17/17 A3025 RMK AO2 LTG DSNT ALQDS TSB00 P0002 T01720172
KODO 260958Z AUTO 03016G24KT 9SM -RA SCT008 BKN041 OVC090 17/17 A3025 RMK AO2 LTG DSNT ALQDS P0000 T01720172
KODO 260953Z AUTO 03018G24KT 8SM VCTS -RA BKN008 BKN032 OVC090 17/17 A3025 RMK AO2 PK WND 02030/0859 LTG DSNT ALQDS RAB0859 TSB17E36 SLP198 P0065 T01720172
KODO 260940Z AUTO 03018G29KT 4SM VCTS RA BR SCT006 SCT010 OVC017 17/17 A3025 RMK AO2 PK WND 02030/0859 LTG DSNT ALQDS RAB0859 TSB17E36 P0064 T01720172
KODO 260936Z AUTO 03016G26KT 2 1/2SM VCTS +RA BR SCT008 OVC013 17/17 A3025 RMK AO2 PK WND 02030/0859 LTG DSNT ALQDS RAB0859 TSB17E36 P0063 T01720172
KODO 260927Z AUTO 02018KT 1 1/4SM +TSRA BR FEW008 BKN013 OVC034 17/17 A3025 RMK AO2 PK WND 02030/0859 LTG DSNT ALQDS RAB0859 TSB17 P0057 T01720167
KODO 260917Z AUTO 03016G29KT 1SM +TSRA BR BKN015 BKN024 OVC034 17/17 A3027 RMK AO2 PK WND 02030/0859 LTG DSNT W-NE RAB0859 TSB17 P0034 T01720167
KODO 260912Z AUTO 03020G29KT 1 3/4SM +RA BR FEW010 BKN025 OVC034 18/17 A3027 RMK AO2 PK WND 02030/0859 LTG DSNT W-NE RAB0859 P0018 T01780167
KODO 260901Z AUTO 04018G30KT 10SM -RA SCT014 BKN027 OVC110 19/16 A3025 RMK AO2 PK WND 02030/0859 LTG DSNT NW-NE RAB0859 CIG 022V040 P0000 T01940161
KODO 260853Z AUTO 05021G37KT 10SM VCTS SCT019 BKN029 OVC110 20/16 A3026 RMK AO2 PK WND 04037/0847 LTG DSNT NW-NE PRESRR SLP199 T02000156 53017
KODO 260846Z AUTO 36019G36KT 10SM VCTS FEW029 SCT060 BKN110 24/18 A3024 RMK AO2 PK WND 02036/0846 LTG DSNT NW-NE PRESRR T02390178
KODO 260753Z AUTO 14012KT 10SM CLR 24/18 A3018 RMK AO2 LTG DSNT W-N SLP170 T02440178
KODO 260653Z AUTO 12015KT 10SM CLR 25/17 A3019 RMK AO2 LTG DSNT N AND NW SLP174 T02500172
KODO 260553Z AUTO 11012G20KT 10SM CLR 26/16 A3020 RMK AO2 SLP178 T02560161 10322 20256 403330217 53015
KODO 260453Z AUTO 13016G21KT 10SM CLR 27/16 A3018 RMK AO2 SLP170 T02670156
KODO 260353Z AUTO 13011G23KT 10SM CLR 27/16 A3018 RMK AO2 SLP170 T02720156
KODO 260253Z AUTO 13016G23KT 10SM CLR 28/16 A3015 RMK AO2 SLP163 T02830156 53010
KODO 260153Z AUTO 13011KT 10SM CLR 29/15 A3013 RMK AO2 SLP153 T02940150
KODO 260053Z AUTO 12014G20KT 10SM CLR 31/15 A3012 RMK AO2 SLP151 T03060150
KODO 252353Z AUTO 15009KT 10SM FEW070 32/14 A3012 RMK AO2 SLP151 T03220139 10333 20289 56020
KODO 252253Z AUTO 10011G16KT 10SM FEW070 33/14 A3013 RMK AO2 SLP154 T03280139
KODO 252153Z AUTO 14010G17KT 10SM FEW065 33/14 A3016 RMK AO2 SLP164 T03280144
KODO 252053Z AUTO 14010G18KT 100V160 10SM SCT060 SCT070 32/15 A3019 RMK AO2 SLP174 T03170150 58021


Page loaded:  08:43 UTC  |   01:43 AM Pacific  |   02:43 AM Mountain  |   03:43 AM Central  |   04:43 AM Eastern

 

ADVISORIES

FORECASTS

FORECASTS

OBSERVATIONS

USER TOOLS

ABOUT US